sensor_id;sensor_type;location;lat;lon;timestamp;P1;durP1;ratioP1;P2;durP2;ratioP2
81386;SDS011;70842;50.744;7.114;2023-10-19T00:00:55;12.55;;;11.32;;
81386;SDS011;70842;50.744;7.114;2023-10-19T00:03:23;15.88;;;14.57;;
81386;SDS011;70842;50.744;7.114;2023-10-19T00:05:50;16.88;;;14.38;;
81386;SDS011;70842;50.744;7.114;2023-10-19T00:08:16;13.38;;;12.02;;
81386;SDS011;70842;50.744;7.114;2023-10-19T00:10:48;10.77;;;9.18;;
81386;SDS011;70842;50.744;7.114;2023-10-19T00:13:28;15.50;;;14.10;;
81386;SDS011;70842;50.744;7.114;2023-10-19T00:15:55;12.68;;;11.43;;
81386;SDS011;70842;50.744;7.114;2023-10-19T00:18:23;13.50;;;12.18;;
81386;SDS011;70842;50.744;7.114;2023-10-19T00:20:51;14.02;;;12.63;;
81386;SDS011;70842;50.744;7.114;2023-10-19T00:23:19;10.45;;;9.50;;
81386;SDS011;70842;50.744;7.114;2023-10-19T00:26:00;11.20;;;10.10;;
81386;SDS011;70842;50.744;7.114;2023-10-19T00:28:41;14.40;;;13.07;;
81386;SDS011;70842;50.744;7.114;2023-10-19T00:31:11;15.07;;;13.65;;
81386;SDS011;70842;50.744;7.114;2023-10-19T00:33:38;13.40;;;11.95;;
81386;SDS011;70842;50.744;7.114;2023-10-19T00:36:08;12.88;;;11.60;;
81386;SDS011;70842;50.744;7.114;2023-10-19T00:38:35;12.68;;;11.52;;
81386;SDS011;70842;50.744;7.114;2023-10-19T00:41:02;15.95;;;14.55;;
81386;SDS011;70842;50.744;7.114;2023-10-19T00:43:32;15.52;;;14.05;;
81386;SDS011;70842;50.744;7.114;2023-10-19T00:46:05;11.02;;;8.95;;
81386;SDS011;70842;50.744;7.114;2023-10-19T00:48:35;14.35;;;13.00;;
81386;SDS011;70842;50.744;7.114;2023-10-19T00:51:03;13.77;;;12.48;;
81386;SDS011;70842;50.744;7.114;2023-10-19T00:53:37;15.48;;;14.07;;
81386;SDS011;70842;50.744;7.114;2023-10-19T00:56:06;16.95;;;15.57;;
81386;SDS011;70842;50.744;7.114;2023-10-19T00:58:37;12.95;;;11.65;;
81386;SDS011;70842;50.744;7.114;2023-10-19T01:01:05;13.15;;;12.05;;
81386;SDS011;70842;50.744;7.114;2023-10-19T01:03:33;14.45;;;13.05;;
81386;SDS011;70842;50.744;7.114;2023-10-19T01:06:03;17.00;;;15.48;;
81386;SDS011;70842;50.744;7.114;2023-10-19T01:08:38;14.52;;;13.00;;
81386;SDS011;70842;50.744;7.114;2023-10-19T01:11:09;15.00;;;13.63;;
81386;SDS011;70842;50.744;7.114;2023-10-19T01:13:41;15.15;;;13.48;;
81386;SDS011;70842;50.744;7.114;2023-10-19T01:16:11;13.73;;;12.32;;
81386;SDS011;70842;50.744;7.114;2023-10-19T01:18:50;12.93;;;11.60;;
81386;SDS011;70842;50.744;7.114;2023-10-19T01:21:23;13.82;;;12.63;;
81386;SDS011;70842;50.744;7.114;2023-10-19T01:24:07;16.65;;;15.18;;
81386;SDS011;70842;50.744;7.114;2023-10-19T01:26:34;14.80;;;13.43;;
81386;SDS011;70842;50.744;7.114;2023-10-19T01:29:04;14.57;;;13.18;;
81386;SDS011;70842;50.744;7.114;2023-10-19T01:31:42;12.43;;;10.05;;
81386;SDS011;70842;50.744;7.114;2023-10-19T01:34:22;14.85;;;13.27;;
81386;SDS011;70842;50.744;7.114;2023-10-19T01:36:49;15.02;;;13.43;;
81386;SDS011;70842;50.744;7.114;2023-10-19T01:39:20;16.67;;;15.38;;
81386;SDS011;70842;50.744;7.114;2023-10-19T01:41:47;16.13;;;14.52;;
81386;SDS011;70842;50.744;7.114;2023-10-19T01:44:16;14.63;;;13.30;;
81386;SDS011;70842;50.744;7.114;2023-10-19T01:46:46;14.50;;;13.18;;
81386;SDS011;70842;50.744;7.114;2023-10-19T01:49:14;13.25;;;11.95;;
81386;SDS011;70842;50.744;7.114;2023-10-19T01:51:49;14.55;;;13.18;;
81386;SDS011;70842;50.744;7.114;2023-10-19T01:54:16;16.05;;;14.73;;
81386;SDS011;70842;50.744;7.114;2023-10-19T01:56:44;14.93;;;13.48;;
81386;SDS011;70842;50.744;7.114;2023-10-19T01:59:11;14.68;;;13.13;;
81386;SDS011;70842;50.744;7.114;2023-10-19T02:01:38;12.27;;;10.35;;
81386;SDS011;70842;50.744;7.114;2023-10-19T02:06:35;15.32;;;13.93;;
81386;SDS011;70842;50.744;7.114;2023-10-19T02:09:04;15.68;;;14.13;;
81386;SDS011;70842;50.744;7.114;2023-10-19T02:11:47;14.30;;;12.90;;
81386;SDS011;70842;50.744;7.114;2023-10-19T02:14:16;13.95;;;12.48;;
81386;SDS011;70842;50.744;7.114;2023-10-19T02:16:47;17.60;;;16.02;;
81386;SDS011;70842;50.744;7.114;2023-10-19T02:19:20;18.23;;;16.63;;
81386;SDS011;70842;50.744;7.114;2023-10-19T02:21:47;16.00;;;14.48;;
81386;SDS011;70842;50.744;7.114;2023-10-19T02:24:15;12.00;;;10.55;;
81386;SDS011;70842;50.744;7.114;2023-10-19T02:26:42;16.33;;;14.75;;
81386;SDS011;70842;50.744;7.114;2023-10-19T02:29:09;14.35;;;12.93;;
81386;SDS011;70842;50.744;7.114;2023-10-19T02:31:37;15.82;;;12.60;;
81386;SDS011;70842;50.744;7.114;2023-10-19T02:34:04;15.35;;;13.70;;
81386;SDS011;70842;50.744;7.114;2023-10-19T02:36:31;15.18;;;13.68;;
81386;SDS011;70842;50.744;7.114;2023-10-19T02:38:58;16.35;;;14.73;;
81386;SDS011;70842;50.744;7.114;2023-10-19T02:41:26;15.48;;;13.95;;
81386;SDS011;70842;50.744;7.114;2023-10-19T02:43:53;16.67;;;15.18;;
81386;SDS011;70842;50.744;7.114;2023-10-19T02:46:37;16.15;;;14.52;;
81386;SDS011;70842;50.744;7.114;2023-10-19T02:51:40;14.23;;;11.68;;
81386;SDS011;70842;50.744;7.114;2023-10-19T02:54:14;16.33;;;11.98;;
81386;SDS011;70842;50.744;7.114;2023-10-19T02:56:46;12.68;;;10.82;;
81386;SDS011;70842;50.744;7.114;2023-10-19T02:59:16;12.13;;;10.48;;
81386;SDS011;70842;50.744;7.114;2023-10-19T03:01:48;14.20;;;12.80;;
81386;SDS011;70842;50.744;7.114;2023-10-19T03:04:37;14.02;;;12.60;;
81386;SDS011;70842;50.744;7.114;2023-10-19T03:07:04;11.63;;;9.23;;
81386;SDS011;70842;50.744;7.114;2023-10-19T03:09:31;14.93;;;13.43;;
81386;SDS011;70842;50.744;7.114;2023-10-19T03:12:02;14.40;;;13.00;;
81386;SDS011;70842;50.744;7.114;2023-10-19T03:14:30;13.68;;;12.00;;
81386;SDS011;70842;50.744;7.114;2023-10-19T03:16:58;13.50;;;11.88;;
81386;SDS011;70842;50.744;7.114;2023-10-19T03:19:26;14.68;;;13.05;;
81386;SDS011;70842;50.744;7.114;2023-10-19T03:21:53;14.27;;;12.88;;
81386;SDS011;70842;50.744;7.114;2023-10-19T03:24:26;17.85;;;16.25;;
81386;SDS011;70842;50.744;7.114;2023-10-19T03:27:05;14.45;;;12.93;;
81386;SDS011;70842;50.744;7.114;2023-10-19T03:29:41;11.38;;;9.02;;
81386;SDS011;70842;50.744;7.114;2023-10-19T03:32:29;13.77;;;12.23;;
81386;SDS011;70842;50.744;7.114;2023-10-19T03:34:59;15.18;;;13.68;;
81386;SDS011;70842;50.744;7.114;2023-10-19T03:37:26;15.13;;;13.52;;
81386;SDS011;70842;50.744;7.114;2023-10-19T03:39:56;17.70;;;15.25;;
81386;SDS011;70842;50.744;7.114;2023-10-19T03:42:24;14.50;;;13.18;;
81386;SDS011;70842;50.744;7.114;2023-10-19T03:44:59;14.25;;;12.85;;
81386;SDS011;70842;50.744;7.114;2023-10-19T03:47:28;14.00;;;12.68;;
81386;SDS011;70842;50.744;7.114;2023-10-19T03:50:01;14.63;;;13.13;;
81386;SDS011;70842;50.744;7.114;2023-10-19T03:52:35;14.13;;;12.68;;
81386;SDS011;70842;50.744;7.114;2023-10-19T03:55:05;13.02;;;11.75;;
81386;SDS011;70842;50.744;7.114;2023-10-19T03:57:37;11.70;;;10.57;;
81386;SDS011;70842;50.744;7.114;2023-10-19T04:00:08;11.30;;;9.85;;
81386;SDS011;70842;50.744;7.114;2023-10-19T04:02:42;13.18;;;11.98;;
81386;SDS011;70842;50.744;7.114;2023-10-19T04:05:09;13.77;;;12.35;;
81386;SDS011;70842;50.744;7.114;2023-10-19T04:07:40;12.43;;;10.63;;
81386;SDS011;70842;50.744;7.114;2023-10-19T04:10:08;13.27;;;12.00;;
81386;SDS011;70842;50.744;7.114;2023-10-19T04:12:35;16.48;;;15.05;;
81386;SDS011;70842;50.744;7.114;2023-10-19T04:15:04;14.77;;;13.45;;
81386;SDS011;70842;50.744;7.114;2023-10-19T04:17:45;12.52;;;11.30;;
81386;SDS011;70842;50.744;7.114;2023-10-19T04:20:13;11.73;;;10.43;;
81386;SDS011;70842;50.744;7.114;2023-10-19T04:22:41;12.43;;;11.05;;
81386;SDS011;70842;50.744;7.114;2023-10-19T04:25:08;11.63;;;10.15;;
81386;SDS011;70842;50.744;7.114;2023-10-19T04:27:34;13.27;;;12.00;;
81386;SDS011;70842;50.744;7.114;2023-10-19T04:30:02;12.20;;;11.02;;
81386;SDS011;70842;50.744;7.114;2023-10-19T04:32:29;15.07;;;13.75;;
81386;SDS011;70842;50.744;7.114;2023-10-19T04:34:58;13.63;;;12.32;;
81386;SDS011;70842;50.744;7.114;2023-10-19T04:37:25;12.00;;;10.82;;
81386;SDS011;70842;50.744;7.114;2023-10-19T04:39:51;14.25;;;13.05;;
81386;SDS011;70842;50.744;7.114;2023-10-19T04:42:18;12.02;;;9.23;;
81386;SDS011;70842;50.744;7.114;2023-10-19T04:44:45;12.48;;;11.20;;
81386;SDS011;70842;50.744;7.114;2023-10-19T04:47:12;14.15;;;12.75;;
81386;SDS011;70842;50.744;7.114;2023-10-19T04:49:38;12.63;;;11.32;;
81386;SDS011;70842;50.744;7.114;2023-10-19T04:52:05;14.05;;;12.75;;
81386;SDS011;70842;50.744;7.114;2023-10-19T04:54:31;14.30;;;12.90;;
81386;SDS011;70842;50.744;7.114;2023-10-19T04:56:58;15.25;;;13.82;;
81386;SDS011;70842;50.744;7.114;2023-10-19T04:59:26;13.55;;;11.77;;
81386;SDS011;70842;50.744;7.114;2023-10-19T05:01:52;14.13;;;12.68;;
81386;SDS011;70842;50.744;7.114;2023-10-19T05:04:19;14.05;;;12.82;;
81386;SDS011;70842;50.744;7.114;2023-10-19T05:06:47;13.13;;;11.82;;
81386;SDS011;70842;50.744;7.114;2023-10-19T05:09:13;13.88;;;9.10;;
81386;SDS011;70842;50.744;7.114;2023-10-19T05:11:39;14.93;;;10.90;;
81386;SDS011;70842;50.744;7.114;2023-10-19T05:14:06;14.23;;;12.77;;
81386;SDS011;70842;50.744;7.114;2023-10-19T05:16:32;13.93;;;11.43;;
81386;SDS011;70842;50.744;7.114;2023-10-19T05:18:59;12.63;;;11.20;;
81386;SDS011;70842;50.744;7.114;2023-10-19T05:21:26;16.33;;;14.85;;
81386;SDS011;70842;50.744;7.114;2023-10-19T05:23:52;14.10;;;12.73;;
81386;SDS011;70842;50.744;7.114;2023-10-19T05:26:19;15.23;;;13.48;;
81386;SDS011;70842;50.744;7.114;2023-10-19T05:28:45;12.60;;;11.27;;
81386;SDS011;70842;50.744;7.114;2023-10-19T05:31:13;13.80;;;12.52;;
81386;SDS011;70842;50.744;7.114;2023-10-19T05:33:41;14.25;;;12.68;;
81386;SDS011;70842;50.744;7.114;2023-10-19T05:36:07;12.45;;;10.20;;
81386;SDS011;70842;50.744;7.114;2023-10-19T05:38:34;11.43;;;9.52;;
81386;SDS011;70842;50.744;7.114;2023-10-19T05:41:00;16.00;;;14.40;;
81386;SDS011;70842;50.744;7.114;2023-10-19T05:43:27;14.63;;;13.13;;
81386;SDS011;70842;50.744;7.114;2023-10-19T05:45:54;14.93;;;13.52;;
81386;SDS011;70842;50.744;7.114;2023-10-19T05:48:21;16.80;;;15.32;;
81386;SDS011;70842;50.744;7.114;2023-10-19T05:50:47;18.25;;;16.67;;
81386;SDS011;70842;50.744;7.114;2023-10-19T05:53:13;13.80;;;12.43;;
81386;SDS011;70842;50.744;7.114;2023-10-19T05:55:44;17.08;;;15.30;;
81386;SDS011;70842;50.744;7.114;2023-10-19T05:58:12;18.73;;;17.08;;
81386;SDS011;70842;50.744;7.114;2023-10-19T06:00:38;16.25;;;11.30;;
81386;SDS011;70842;50.744;7.114;2023-10-19T06:03:06;15.63;;;14.13;;
81386;SDS011;70842;50.744;7.114;2023-10-19T06:05:32;16.63;;;14.93;;
81386;SDS011;70842;50.744;7.114;2023-10-19T06:07:59;18.95;;;17.38;;
81386;SDS011;70842;50.744;7.114;2023-10-19T06:10:27;16.83;;;15.18;;
81386;SDS011;70842;50.744;7.114;2023-10-19T06:12:54;16.48;;;14.88;;
81386;SDS011;70842;50.744;7.114;2023-10-19T06:15:21;17.17;;;15.43;;
81386;SDS011;70842;50.744;7.114;2023-10-19T06:17:50;15.90;;;14.30;;
81386;SDS011;70842;50.744;7.114;2023-10-19T06:20:18;18.50;;;16.90;;
81386;SDS011;70842;50.744;7.114;2023-10-19T06:22:52;24.58;;;22.30;;
81386;SDS011;70842;50.744;7.114;2023-10-19T06:25:22;17.70;;;15.98;;
81386;SDS011;70842;50.744;7.114;2023-10-19T06:27:51;14.95;;;13.35;;
81386;SDS011;70842;50.744;7.114;2023-10-19T06:30:18;15.95;;;14.07;;
81386;SDS011;70842;50.744;7.114;2023-10-19T06:32:47;15.82;;;14.32;;
81386;SDS011;70842;50.744;7.114;2023-10-19T06:35:19;14.55;;;13.10;;
81386;SDS011;70842;50.744;7.114;2023-10-19T06:37:47;16.10;;;14.40;;
81386;SDS011;70842;50.744;7.114;2023-10-19T06:40:14;15.20;;;13.73;;
81386;SDS011;70842;50.744;7.114;2023-10-19T06:42:43;14.90;;;13.35;;
81386;SDS011;70842;50.744;7.114;2023-10-19T06:45:13;13.70;;;9.40;;
81386;SDS011;70842;50.744;7.114;2023-10-19T06:47:40;16.35;;;13.35;;
81386;SDS011;70842;50.744;7.114;2023-10-19T06:50:14;16.13;;;12.75;;
81386;SDS011;70842;50.744;7.114;2023-10-19T06:52:43;14.55;;;12.75;;
81386;SDS011;70842;50.744;7.114;2023-10-19T06:55:14;15.50;;;13.18;;
81386;SDS011;70842;50.744;7.114;2023-10-19T06:57:48;14.38;;;12.75;;
81386;SDS011;70842;50.744;7.114;2023-10-19T07:00:17;12.90;;;11.43;;
81386;SDS011;70842;50.744;7.114;2023-10-19T07:02:51;14.45;;;13.02;;
81386;SDS011;70842;50.744;7.114;2023-10-19T07:05:21;15.25;;;13.05;;
81386;SDS011;70842;50.744;7.114;2023-10-19T07:07:52;16.00;;;14.38;;
81386;SDS011;70842;50.744;7.114;2023-10-19T07:10:21;14.30;;;12.90;;
81386;SDS011;70842;50.744;7.114;2023-10-19T07:12:48;14.15;;;12.60;;
81386;SDS011;70842;50.744;7.114;2023-10-19T07:15:18;13.40;;;12.30;;
81386;SDS011;70842;50.744;7.114;2023-10-19T07:17:46;9.85;;;8.13;;
81386;SDS011;70842;50.744;7.114;2023-10-19T07:20:13;12.13;;;10.88;;
81386;SDS011;70842;50.744;7.114;2023-10-19T07:23:10;12.38;;;11.07;;
81386;SDS011;70842;50.744;7.114;2023-10-19T07:25:37;15.13;;;13.73;;
81386;SDS011;70842;50.744;7.114;2023-10-19T07:28:10;13.38;;;12.15;;
81386;SDS011;70842;50.744;7.114;2023-10-19T07:30:38;12.57;;;11.30;;
81386;SDS011;70842;50.744;7.114;2023-10-19T07:33:06;12.05;;;9.88;;
81386;SDS011;70842;50.744;7.114;2023-10-19T07:35:34;14.20;;;12.65;;
81386;SDS011;70842;50.744;7.114;2023-10-19T07:38:03;12.00;;;10.82;;
81386;SDS011;70842;50.744;7.114;2023-10-19T07:40:30;10.65;;;9.55;;
81386;SDS011;70842;50.744;7.114;2023-10-19T07:42:57;12.48;;;8.75;;
81386;SDS011;70842;50.744;7.114;2023-10-19T07:45:23;10.98;;;9.98;;
81386;SDS011;70842;50.744;7.114;2023-10-19T07:47:51;10.63;;;9.13;;
81386;SDS011;70842;50.744;7.114;2023-10-19T07:50:18;11.05;;;10.05;;
81386;SDS011;70842;50.744;7.114;2023-10-19T07:52:46;11.80;;;10.70;;
81386;SDS011;70842;50.744;7.114;2023-10-19T07:55:15;11.00;;;9.88;;
81386;SDS011;70842;50.744;7.114;2023-10-19T07:57:43;11.88;;;10.27;;
81386;SDS011;70842;50.744;7.114;2023-10-19T08:00:10;13.05;;;11.75;;
81386;SDS011;70842;50.744;7.114;2023-10-19T08:02:41;11.48;;;10.38;;
81386;SDS011;70842;50.744;7.114;2023-10-19T08:05:08;10.68;;;9.68;;
81386;SDS011;70842;50.744;7.114;2023-10-19T08:07:38;10.00;;;7.50;;
81386;SDS011;70842;50.744;7.114;2023-10-19T08:10:06;15.38;;;10.63;;
81386;SDS011;70842;50.744;7.114;2023-10-19T08:12:36;10.38;;;8.45;;
81386;SDS011;70842;50.744;7.114;2023-10-19T08:15:03;14.35;;;10.73;;
81386;SDS011;70842;50.744;7.114;2023-10-19T08:17:30;9.68;;;8.63;;
81386;SDS011;70842;50.744;7.114;2023-10-19T08:19:57;9.23;;;8.32;;
81386;SDS011;70842;50.744;7.114;2023-10-19T08:22:23;11.25;;;10.10;;
81386;SDS011;70842;50.744;7.114;2023-10-19T08:24:50;15.18;;;11.30;;
81386;SDS011;70842;50.744;7.114;2023-10-19T08:27:17;11.60;;;9.90;;
81386;SDS011;70842;50.744;7.114;2023-10-19T08:29:44;10.77;;;9.68;;
81386;SDS011;70842;50.744;7.114;2023-10-19T08:32:11;11.15;;;10.02;;
81386;SDS011;70842;50.744;7.114;2023-10-19T08:34:38;11.57;;;10.50;;
81386;SDS011;70842;50.744;7.114;2023-10-19T08:37:05;8.90;;;8.15;;
81386;SDS011;70842;50.744;7.114;2023-10-19T08:39:32;10.48;;;9.48;;
81386;SDS011;70842;50.744;7.114;2023-10-19T08:42:03;11.50;;;9.57;;
81386;SDS011;70842;50.744;7.114;2023-10-19T08:44:33;11.57;;;10.57;;
81386;SDS011;70842;50.744;7.114;2023-10-19T08:47:00;9.48;;;8.13;;
81386;SDS011;70842;50.744;7.114;2023-10-19T08:49:27;8.60;;;6.72;;
81386;SDS011;70842;50.744;7.114;2023-10-19T08:51:54;9.27;;;8.13;;
81386;SDS011;70842;50.744;7.114;2023-10-19T08:54:22;10.18;;;7.90;;
81386;SDS011;70842;50.744;7.114;2023-10-19T08:56:48;8.63;;;7.70;;
81386;SDS011;70842;50.744;7.114;2023-10-19T08:59:15;9.25;;;7.13;;
81386;SDS011;70842;50.744;7.114;2023-10-19T09:01:41;8.60;;;7.18;;
81386;SDS011;70842;50.744;7.114;2023-10-19T09:04:11;6.97;;;5.57;;
81386;SDS011;70842;50.744;7.114;2023-10-19T09:06:37;9.32;;;8.43;;
81386;SDS011;70842;50.744;7.114;2023-10-19T09:09:10;7.78;;;6.70;;
81386;SDS011;70842;50.744;7.114;2023-10-19T09:11:46;8.27;;;6.63;;
81386;SDS011;70842;50.744;7.114;2023-10-19T09:14:14;8.40;;;7.57;;
81386;SDS011;70842;50.744;7.114;2023-10-19T09:16:53;8.60;;;7.15;;
81386;SDS011;70842;50.744;7.114;2023-10-19T09:22:03;8.50;;;6.65;;
81386;SDS011;70842;50.744;7.114;2023-10-19T09:24:48;6.38;;;4.97;;
81386;SDS011;70842;50.744;7.114;2023-10-19T09:27:25;7.43;;;5.75;;
81386;SDS011;70842;50.744;7.114;2023-10-19T09:29:52;6.03;;;4.13;;
81386;SDS011;70842;50.744;7.114;2023-10-19T09:32:19;8.18;;;6.43;;
81386;SDS011;70842;50.744;7.114;2023-10-19T09:34:46;8.35;;;4.72;;
81386;SDS011;70842;50.744;7.114;2023-10-19T09:37:14;7.43;;;5.32;;
81386;SDS011;70842;50.744;7.114;2023-10-19T09:39:42;8.52;;;5.05;;
81386;SDS011;70842;50.744;7.114;2023-10-19T09:42:10;7.82;;;7.18;;
81386;SDS011;70842;50.744;7.114;2023-10-19T09:44:59;7.10;;;6.40;;
81386;SDS011;70842;50.744;7.114;2023-10-19T09:47:34;6.93;;;6.22;;
81386;SDS011;70842;50.744;7.114;2023-10-19T09:50:04;8.32;;;5.25;;
81386;SDS011;70842;50.744;7.114;2023-10-19T09:52:32;5.88;;;4.53;;
81386;SDS011;70842;50.744;7.114;2023-10-19T09:55:05;6.55;;;4.22;;
81386;SDS011;70842;50.744;7.114;2023-10-19T10:00:17;7.97;;;5.60;;
81386;SDS011;70842;50.744;7.114;2023-10-19T10:02:50;6.35;;;5.30;;
81386;SDS011;70842;50.744;7.114;2023-10-19T10:05:44;7.88;;;4.53;;
81386;SDS011;70842;50.744;7.114;2023-10-19T10:10:43;6.50;;;5.18;;
81386;SDS011;70842;50.744;7.114;2023-10-19T10:15:58;4.68;;;4.05;;
81386;SDS011;70842;50.744;7.114;2023-10-19T10:18:30;5.40;;;3.67;;
81386;SDS011;70842;50.744;7.114;2023-10-19T10:21:05;9.23;;;4.75;;
81386;SDS011;70842;50.744;7.114;2023-10-19T10:23:41;8.32;;;5.95;;
81386;SDS011;70842;50.744;7.114;2023-10-19T10:26:09;6.47;;;4.05;;
81386;SDS011;70842;50.744;7.114;2023-10-19T10:28:38;6.88;;;4.30;;
81386;SDS011;70842;50.744;7.114;2023-10-19T10:33:53;5.03;;;3.97;;
81386;SDS011;70842;50.744;7.114;2023-10-19T10:36:21;8.25;;;3.63;;
81386;SDS011;70842;50.744;7.114;2023-10-19T10:38:49;6.10;;;3.35;;
81386;SDS011;70842;50.744;7.114;2023-10-19T10:41:19;7.88;;;3.92;;
81386;SDS011;70842;50.744;7.114;2023-10-19T10:43:55;9.45;;;4.93;;
81386;SDS011;70842;50.744;7.114;2023-10-19T10:46:23;5.68;;;4.03;;
81386;SDS011;70842;50.744;7.114;2023-10-19T10:48:51;8.93;;;4.78;;
81386;SDS011;70842;50.744;7.114;2023-10-19T10:51:18;6.80;;;4.95;;
81386;SDS011;70842;50.744;7.114;2023-10-19T10:53:46;7.80;;;5.20;;
81386;SDS011;70842;50.744;7.114;2023-10-19T10:56:14;5.75;;;4.10;;
81386;SDS011;70842;50.744;7.114;2023-10-19T10:58:41;8.38;;;5.03;;
81386;SDS011;70842;50.744;7.114;2023-10-19T11:01:08;6.97;;;4.82;;
81386;SDS011;70842;50.744;7.114;2023-10-19T11:03:36;7.43;;;6.45;;
81386;SDS011;70842;50.744;7.114;2023-10-19T11:06:07;5.15;;;4.43;;
81386;SDS011;70842;50.744;7.114;2023-10-19T11:08:34;5.05;;;4.43;;
81386;SDS011;70842;50.744;7.114;2023-10-19T11:11:03;7.97;;;4.43;;
81386;SDS011;70842;50.744;7.114;2023-10-19T11:13:31;6.97;;;4.00;;
81386;SDS011;70842;50.744;7.114;2023-10-19T11:15:59;6.68;;;4.22;;
81386;SDS011;70842;50.744;7.114;2023-10-19T11:21:07;7.63;;;5.35;;
81386;SDS011;70842;50.744;7.114;2023-10-19T11:26:09;6.47;;;4.65;;
81386;SDS011;70842;50.744;7.114;2023-10-19T11:28:37;7.97;;;4.90;;
81386;SDS011;70842;50.744;7.114;2023-10-19T11:31:17;6.10;;;5.18;;
81386;SDS011;70842;50.744;7.114;2023-10-19T11:33:45;5.15;;;3.30;;
81386;SDS011;70842;50.744;7.114;2023-10-19T11:36:15;5.13;;;3.60;;
81386;SDS011;70842;50.744;7.114;2023-10-19T11:38:43;7.70;;;5.05;;
81386;SDS011;70842;50.744;7.114;2023-10-19T11:41:11;12.45;;;6.57;;
81386;SDS011;70842;50.744;7.114;2023-10-19T11:43:44;8.15;;;6.32;;
81386;SDS011;70842;50.744;7.114;2023-10-19T11:46:11;8.02;;;7.18;;
81386;SDS011;70842;50.744;7.114;2023-10-19T11:48:38;9.20;;;4.70;;
81386;SDS011;70842;50.744;7.114;2023-10-19T11:51:05;9.18;;;7.13;;
81386;SDS011;70842;50.744;7.114;2023-10-19T11:53:33;10.70;;;9.23;;
81386;SDS011;70842;50.744;7.114;2023-10-19T11:56:02;8.00;;;6.38;;
81386;SDS011;70842;50.744;7.114;2023-10-19T11:58:32;9.52;;;7.20;;
81386;SDS011;70842;50.744;7.114;2023-10-19T12:01:01;6.93;;;5.22;;
81386;SDS011;70842;50.744;7.114;2023-10-19T12:03:36;7.63;;;5.45;;
81386;SDS011;70842;50.744;7.114;2023-10-19T12:06:20;7.68;;;6.07;;
81386;SDS011;70842;50.744;7.114;2023-10-19T12:08:53;10.98;;;7.55;;
81386;SDS011;70842;50.744;7.114;2023-10-19T12:11:21;7.47;;;6.63;;
81386;SDS011;70842;50.744;7.114;2023-10-19T12:13:48;8.65;;;8.00;;
81386;SDS011;70842;50.744;7.114;2023-10-19T12:16:15;10.25;;;6.65;;
81386;SDS011;70842;50.744;7.114;2023-10-19T12:18:46;8.98;;;6.95;;
81386;SDS011;70842;50.744;7.114;2023-10-19T12:21:14;7.95;;;5.78;;
81386;SDS011;70842;50.744;7.114;2023-10-19T12:23:41;6.55;;;5.63;;
81386;SDS011;70842;50.744;7.114;2023-10-19T12:26:09;7.18;;;5.15;;
81386;SDS011;70842;50.744;7.114;2023-10-19T12:28:40;10.07;;;9.18;;
81386;SDS011;70842;50.744;7.114;2023-10-19T12:31:07;10.10;;;6.57;;
81386;SDS011;70842;50.744;7.114;2023-10-19T12:33:38;11.77;;;5.30;;
81386;SDS011;70842;50.744;7.114;2023-10-19T12:36:05;6.30;;;3.78;;
81386;SDS011;70842;50.744;7.114;2023-10-19T12:38:58;10.60;;;6.15;;
81386;SDS011;70842;50.744;7.114;2023-10-19T12:41:25;8.65;;;6.53;;
81386;SDS011;70842;50.744;7.114;2023-10-19T12:43:51;10.32;;;6.18;;
81386;SDS011;70842;50.744;7.114;2023-10-19T12:46:24;10.05;;;4.97;;
81386;SDS011;70842;50.744;7.114;2023-10-19T12:48:51;10.25;;;6.82;;
81386;SDS011;70842;50.744;7.114;2023-10-19T12:51:18;7.97;;;6.97;;
81386;SDS011;70842;50.744;7.114;2023-10-19T12:53:52;7.95;;;7.05;;
81386;SDS011;70842;50.744;7.114;2023-10-19T12:56:20;8.55;;;6.18;;
81386;SDS011;70842;50.744;7.114;2023-10-19T12:58:50;6.57;;;4.95;;
81386;SDS011;70842;50.744;7.114;2023-10-19T13:01:16;8.13;;;5.70;;
81386;SDS011;70842;50.744;7.114;2023-10-19T13:03:44;13.40;;;5.75;;
81386;SDS011;70842;50.744;7.114;2023-10-19T13:06:13;10.70;;;6.70;;
81386;SDS011;70842;50.744;7.114;2023-10-19T13:08:40;12.70;;;7.70;;
81386;SDS011;70842;50.744;7.114;2023-10-19T13:11:07;7.55;;;5.20;;
81386;SDS011;70842;50.744;7.114;2023-10-19T13:13:42;8.30;;;6.93;;
81386;SDS011;70842;50.744;7.114;2023-10-19T13:16:09;8.60;;;7.32;;
81386;SDS011;70842;50.744;7.114;2023-10-19T13:18:36;8.38;;;7.57;;
81386;SDS011;70842;50.744;7.114;2023-10-19T13:21:02;10.82;;;7.97;;
81386;SDS011;70842;50.744;7.114;2023-10-19T13:23:31;10.00;;;7.35;;
81386;SDS011;70842;50.744;7.114;2023-10-19T13:26:02;7.88;;;4.70;;
81386;SDS011;70842;50.744;7.114;2023-10-19T13:28:41;10.10;;;6.25;;
81386;SDS011;70842;50.744;7.114;2023-10-19T13:31:07;9.55;;;8.13;;
81386;SDS011;70842;50.744;7.114;2023-10-19T13:33:35;10.63;;;7.30;;
81386;SDS011;70842;50.744;7.114;2023-10-19T13:36:02;13.07;;;7.40;;
81386;SDS011;70842;50.744;7.114;2023-10-19T13:38:28;7.80;;;7.10;;
81386;SDS011;70842;50.744;7.114;2023-10-19T13:40:55;11.57;;;8.27;;
81386;SDS011;70842;50.744;7.114;2023-10-19T13:43:21;8.50;;;7.65;;
81386;SDS011;70842;50.744;7.114;2023-10-19T13:45:48;8.30;;;5.60;;
81386;SDS011;70842;50.744;7.114;2023-10-19T13:48:15;9.52;;;5.20;;
81386;SDS011;70842;50.744;7.114;2023-10-19T13:50:48;9.90;;;6.18;;
81386;SDS011;70842;50.744;7.114;2023-10-19T13:53:15;9.05;;;7.53;;
81386;SDS011;70842;50.744;7.114;2023-10-19T13:55:42;11.60;;;7.82;;
81386;SDS011;70842;50.744;7.114;2023-10-19T13:58:09;8.82;;;7.82;;
81386;SDS011;70842;50.744;7.114;2023-10-19T14:00:37;11.20;;;9.38;;
81386;SDS011;70842;50.744;7.114;2023-10-19T14:03:13;10.63;;;6.47;;
81386;SDS011;70842;50.744;7.114;2023-10-19T14:05:42;9.15;;;7.50;;
81386;SDS011;70842;50.744;7.114;2023-10-19T14:08:13;8.52;;;7.65;;
81386;SDS011;70842;50.744;7.114;2023-10-19T14:10:41;9.35;;;8.32;;
81386;SDS011;70842;50.744;7.114;2023-10-19T14:13:09;11.43;;;8.63;;
81386;SDS011;70842;50.744;7.114;2023-10-19T14:15:37;13.20;;;12.10;;
81386;SDS011;70842;50.744;7.114;2023-10-19T14:18:04;11.65;;;9.88;;
81386;SDS011;70842;50.744;7.114;2023-10-19T14:20:31;11.30;;;9.80;;
81386;SDS011;70842;50.744;7.114;2023-10-19T14:23:00;11.23;;;9.20;;
81386;SDS011;70842;50.744;7.114;2023-10-19T14:25:30;10.55;;;9.55;;
81386;SDS011;70842;50.744;7.114;2023-10-19T14:27:57;9.75;;;8.55;;
81386;SDS011;70842;50.744;7.114;2023-10-19T14:30:26;14.82;;;13.43;;
81386;SDS011;70842;50.744;7.114;2023-10-19T14:32:54;14.00;;;9.77;;
81386;SDS011;70842;50.744;7.114;2023-10-19T14:35:21;11.43;;;9.88;;
81386;SDS011;70842;50.744;7.114;2023-10-19T14:37:53;12.75;;;11.57;;
81386;SDS011;70842;50.744;7.114;2023-10-19T14:40:22;12.48;;;9.77;;
81386;SDS011;70842;50.744;7.114;2023-10-19T14:42:51;11.70;;;10.63;;
81386;SDS011;70842;50.744;7.114;2023-10-19T14:45:23;10.75;;;7.43;;
81386;SDS011;70842;50.744;7.114;2023-10-19T14:47:58;8.95;;;7.38;;
81386;SDS011;70842;50.744;7.114;2023-10-19T14:52:55;10.02;;;8.10;;
81386;SDS011;70842;50.744;7.114;2023-10-19T14:55:22;11.27;;;8.35;;
81386;SDS011;70842;50.744;7.114;2023-10-19T14:57:50;10.15;;;8.95;;
81386;SDS011;70842;50.744;7.114;2023-10-19T15:00:22;13.95;;;8.77;;
81386;SDS011;70842;50.744;7.114;2023-10-19T15:03:08;11.32;;;8.55;;
81386;SDS011;70842;50.744;7.114;2023-10-19T15:05:35;10.65;;;7.90;;
81386;SDS011;70842;50.744;7.114;2023-10-19T15:08:03;9.77;;;8.13;;
81386;SDS011;70842;50.744;7.114;2023-10-19T15:10:34;9.77;;;8.80;;